sensor_id;sensor_type;location;lat;lon;timestamp;pressure;altitude;pressure_sealevel;temperature;humidity
23635;BME280;11994;51.038;16.974;2023-03-25T00:00:59;99124.96;;;11.63;69.68
23635;BME280;11994;51.038;16.974;2023-03-25T00:03:26;99123.67;;;11.56;69.82
23635;BME280;11994;51.038;16.974;2023-03-25T00:05:53;99120.63;;;11.49;69.84
23635;BME280;11994;51.038;16.974;2023-03-25T00:08:20;99112.40;;;11.46;70.00
23635;BME280;11994;51.038;16.974;2023-03-25T00:10:50;99111.14;;;11.46;70.20
23635;BME280;11994;51.038;16.974;2023-03-25T00:13:16;99115.58;;;11.49;70.16
23635;BME280;11994;51.038;16.974;2023-03-25T00:15:42;99108.00;;;11.50;70.28
23635;BME280;11994;51.038;16.974;2023-03-25T00:18:11;99105.61;;;11.52;70.24
23635;BME280;11994;51.038;16.974;2023-03-25T00:20:36;99100.08;;;11.51;70.23
23635;BME280;11994;51.038;16.974;2023-03-25T00:23:05;99096.53;;;11.48;70.25
23635;BME280;11994;51.038;16.974;2023-03-25T00:25:31;99092.86;;;11.40;70.30
23635;BME280;11994;51.038;16.974;2023-03-25T00:27:58;99090.51;;;11.34;70.22
23635;BME280;11994;51.038;16.974;2023-03-25T00:30:23;99084.45;;;11.28;70.30
23635;BME280;11994;51.038;16.974;2023-03-25T00:32:48;99085.52;;;11.24;70.49
23635;BME280;11994;51.038;16.974;2023-03-25T00:35:20;99088.64;;;11.21;70.50
23635;BME280;11994;51.038;16.974;2023-03-25T00:37:50;99088.73;;;11.19;70.61
23635;BME280;11994;51.038;16.974;2023-03-25T00:40:28;99084.29;;;11.17;70.61
23635;BME280;11994;51.038;16.974;2023-03-25T00:42:54;99086.84;;;11.18;70.74
23635;BME280;11994;51.038;16.974;2023-03-25T00:45:20;99092.18;;;11.20;70.75
23635;BME280;11994;51.038;16.974;2023-03-25T00:47:45;99093.05;;;11.20;70.68
23635;BME280;11994;51.038;16.974;2023-03-25T00:50:11;99092.89;;;11.20;70.82
23635;BME280;11994;51.038;16.974;2023-03-25T00:52:37;99089.83;;;11.18;70.81
23635;BME280;11994;51.038;16.974;2023-03-25T00:55:03;99086.56;;;11.17;70.68
23635;BME280;11994;51.038;16.974;2023-03-25T00:57:29;99087.77;;;11.17;70.82
23635;BME280;11994;51.038;16.974;2023-03-25T00:59:55;99091.30;;;11.17;70.82
23635;BME280;11994;51.038;16.974;2023-03-25T01:02:21;99091.54;;;11.15;70.77
23635;BME280;11994;51.038;16.974;2023-03-25T01:04:47;99093.02;;;11.13;70.71
23635;BME280;11994;51.038;16.974;2023-03-25T01:07:18;99091.41;;;11.10;70.75
23635;BME280;11994;51.038;16.974;2023-03-25T01:09:44;99088.34;;;11.08;70.81
23635;BME280;11994;51.038;16.974;2023-03-25T01:12:11;99084.15;;;11.04;70.81
23635;BME280;11994;51.038;16.974;2023-03-25T01:14:37;99085.84;;;11.02;70.81
23635;BME280;11994;51.038;16.974;2023-03-25T01:17:02;99087.00;;;11.03;70.85
23635;BME280;11994;51.038;16.974;2023-03-25T01:19:27;99083.09;;;11.04;71.00
23635;BME280;11994;51.038;16.974;2023-03-25T01:21:53;99083.42;;;11.05;71.11
23635;BME280;11994;51.038;16.974;2023-03-25T01:24:18;99083.15;;;11.03;70.99
23635;BME280;11994;51.038;16.974;2023-03-25T01:26:44;99080.17;;;11.03;71.17
23635;BME280;11994;51.038;16.974;2023-03-25T01:29:11;99082.63;;;10.99;71.06
23635;BME280;11994;51.038;16.974;2023-03-25T01:31:37;99086.69;;;10.94;71.11
23635;BME280;11994;51.038;16.974;2023-03-25T01:34:03;99078.46;;;10.90;71.18
23635;BME280;11994;51.038;16.974;2023-03-25T01:36:28;99075.67;;;10.86;71.22
23635;BME280;11994;51.038;16.974;2023-03-25T01:38:55;99067.52;;;10.80;71.12
23635;BME280;11994;51.038;16.974;2023-03-25T01:41:22;99069.72;;;10.74;71.18
23635;BME280;11994;51.038;16.974;2023-03-25T01:44:02;99068.13;;;10.70;71.36
23635;BME280;11994;51.038;16.974;2023-03-25T01:46:27;99067.46;;;10.70;71.51
23635;BME280;11994;51.038;16.974;2023-03-25T01:48:53;99064.02;;;10.68;71.62
23635;BME280;11994;51.038;16.974;2023-03-25T01:51:26;99058.45;;;10.64;71.66
23635;BME280;11994;51.038;16.974;2023-03-25T01:53:52;99059.34;;;10.51;71.79
23635;BME280;11994;51.038;16.974;2023-03-25T01:56:21;99054.23;;;10.40;71.96
23635;BME280;11994;51.038;16.974;2023-03-25T01:58:49;99044.27;;;10.36;72.44
23635;BME280;11994;51.038;16.974;2023-03-25T02:01:18;99041.23;;;10.37;72.50
23635;BME280;11994;51.038;16.974;2023-03-25T02:03:46;99036.09;;;10.35;72.34
23635;BME280;11994;51.038;16.974;2023-03-25T02:06:22;99038.45;;;10.28;72.63
23635;BME280;11994;51.038;16.974;2023-03-25T02:08:53;99040.55;;;10.28;72.74
23635;BME280;11994;51.038;16.974;2023-03-25T02:11:20;99039.67;;;10.28;72.88
23635;BME280;11994;51.038;16.974;2023-03-25T02:13:46;99037.00;;;10.29;72.81
23635;BME280;11994;51.038;16.974;2023-03-25T02:30:31;99038.80;;;10.02;73.33
23635;BME280;11994;51.038;16.974;2023-03-25T02:36:22;99033.80;;;10.00;73.71
23635;BME280;11994;51.038;16.974;2023-03-25T02:47:12;99027.37;;;10.00;74.00
23635;BME280;11994;51.038;16.974;2023-03-25T02:49:44;99027.10;;;9.98;73.93
23635;BME280;11994;51.038;16.974;2023-03-25T02:52:26;99030.08;;;9.98;74.01
23635;BME280;11994;51.038;16.974;2023-03-25T02:54:54;99036.14;;;9.95;73.96
23635;BME280;11994;51.038;16.974;2023-03-25T02:57:27;99036.83;;;9.90;73.95
23635;BME280;11994;51.038;16.974;2023-03-25T02:59:54;99036.16;;;9.90;74.06
23635;BME280;11994;51.038;16.974;2023-03-25T03:02:23;99037.71;;;9.90;73.98
23635;BME280;11994;51.038;16.974;2023-03-25T03:04:52;99039.76;;;9.87;74.20
23635;BME280;11994;51.038;16.974;2023-03-25T03:07:24;99039.61;;;9.86;74.27
23635;BME280;11994;51.038;16.974;2023-03-25T03:12:26;99035.45;;;9.77;74.29
23635;BME280;11994;51.038;16.974;2023-03-25T03:15:11;99032.89;;;9.75;74.64
23635;BME280;11994;51.038;16.974;2023-03-25T03:18:08;99031.38;;;9.74;74.49
23635;BME280;11994;51.038;16.974;2023-03-25T03:23:35;99036.91;;;9.66;74.58
23635;BME280;11994;51.038;16.974;2023-03-25T03:26:15;99031.30;;;9.67;74.68
23635;BME280;11994;51.038;16.974;2023-03-25T03:28:48;99039.11;;;9.68;74.82
23635;BME280;11994;51.038;16.974;2023-03-25T03:36:59;99051.23;;;9.80;75.10
23635;BME280;11994;51.038;16.974;2023-03-25T03:39:34;99047.52;;;9.81;75.01
23635;BME280;11994;51.038;16.974;2023-03-25T03:42:16;99045.94;;;9.81;74.98
23635;BME280;11994;51.038;16.974;2023-03-25T03:44:48;99045.23;;;9.81;75.02
23635;BME280;11994;51.038;16.974;2023-03-25T03:47:20;99046.29;;;9.81;75.05
23635;BME280;11994;51.038;16.974;2023-03-25T03:49:52;99044.20;;;9.81;75.08
23635;BME280;11994;51.038;16.974;2023-03-25T03:52:21;99047.30;;;9.82;74.97
23635;BME280;11994;51.038;16.974;2023-03-25T03:55:19;99048.28;;;9.84;75.05
23635;BME280;11994;51.038;16.974;2023-03-25T03:57:54;99046.60;;;9.82;74.94
23635;BME280;11994;51.038;16.974;2023-03-25T04:00:30;99048.30;;;9.78;75.07
23635;BME280;11994;51.038;16.974;2023-03-25T04:03:08;99051.75;;;9.80;75.19
23635;BME280;11994;51.038;16.974;2023-03-25T04:05:40;99050.89;;;9.79;75.05
23635;BME280;11994;51.038;16.974;2023-03-25T04:08:21;99046.16;;;9.75;75.05
23635;BME280;11994;51.038;16.974;2023-03-25T04:11:09;99049.45;;;9.72;74.97
23635;BME280;11994;51.038;16.974;2023-03-25T04:13:39;99052.02;;;9.68;74.97
23635;BME280;11994;51.038;16.974;2023-03-25T04:16:06;99054.84;;;9.63;75.09
23635;BME280;11994;51.038;16.974;2023-03-25T04:18:32;99051.52;;;9.63;75.06
23635;BME280;11994;51.038;16.974;2023-03-25T04:20:58;99056.55;;;9.64;75.22
23635;BME280;11994;51.038;16.974;2023-03-25T04:23:25;99060.91;;;9.64;75.22
23635;BME280;11994;51.038;16.974;2023-03-25T04:25:54;99058.02;;;9.62;75.36
23635;BME280;11994;51.038;16.974;2023-03-25T04:28:20;99060.42;;;9.63;75.27
23635;BME280;11994;51.038;16.974;2023-03-25T04:30:46;99057.50;;;9.58;75.15
23635;BME280;11994;51.038;16.974;2023-03-25T04:33:13;99057.77;;;9.56;75.27
23635;BME280;11994;51.038;16.974;2023-03-25T04:35:39;99064.44;;;9.55;75.21
23635;BME280;11994;51.038;16.974;2023-03-25T04:38:06;99064.38;;;9.47;75.06
23635;BME280;11994;51.038;16.974;2023-03-25T04:40:32;99061.97;;;9.41;75.20
23635;BME280;11994;51.038;16.974;2023-03-25T04:42:57;99065.39;;;9.43;75.33
23635;BME280;11994;51.038;16.974;2023-03-25T04:45:24;99066.85;;;9.46;75.32
23635;BME280;11994;51.038;16.974;2023-03-25T04:47:50;99068.15;;;9.49;75.37
23635;BME280;11994;51.038;16.974;2023-03-25T04:50:28;99067.23;;;9.50;75.38
23635;BME280;11994;51.038;16.974;2023-03-25T04:52:55;99068.11;;;9.49;75.38
23635;BME280;11994;51.038;16.974;2023-03-25T04:55:24;99071.33;;;9.48;75.31
23635;BME280;11994;51.038;16.974;2023-03-25T04:57:51;99076.23;;;9.47;75.35
23635;BME280;11994;51.038;16.974;2023-03-25T05:00:21;99077.73;;;9.49;75.42
23635;BME280;11994;51.038;16.974;2023-03-25T05:02:49;99080.02;;;9.53;75.43
23635;BME280;11994;51.038;16.974;2023-03-25T05:05:24;99074.55;;;9.55;75.38
23635;BME280;11994;51.038;16.974;2023-03-25T05:07:52;99075.13;;;9.58;75.48
23635;BME280;11994;51.038;16.974;2023-03-25T05:10:20;99072.75;;;9.61;75.48
23635;BME280;11994;51.038;16.974;2023-03-25T05:12:46;99070.10;;;9.62;75.59
23635;BME280;11994;51.038;16.974;2023-03-25T05:15:12;99066.26;;;9.62;75.60
23635;BME280;11994;51.038;16.974;2023-03-25T05:17:38;99070.05;;;9.62;75.39
23635;BME280;11994;51.038;16.974;2023-03-25T05:20:05;99072.55;;;9.61;75.45
23635;BME280;11994;51.038;16.974;2023-03-25T05:22:33;99072.08;;;9.60;75.31
23635;BME280;11994;51.038;16.974;2023-03-25T05:24:59;99069.30;;;9.55;75.30
23635;BME280;11994;51.038;16.974;2023-03-25T05:27:27;99067.55;;;9.50;75.38
23635;BME280;11994;51.038;16.974;2023-03-25T05:29:55;99064.31;;;9.49;75.54
23635;BME280;11994;51.038;16.974;2023-03-25T05:32:23;99060.02;;;9.51;75.62
23635;BME280;11994;51.038;16.974;2023-03-25T05:34:50;99058.44;;;9.52;75.69
23635;BME280;11994;51.038;16.974;2023-03-25T05:37:17;99053.88;;;9.52;75.78
23635;BME280;11994;51.038;16.974;2023-03-25T05:39:43;99057.00;;;9.53;75.81
23635;BME280;11994;51.038;16.974;2023-03-25T05:42:09;99061.60;;;9.56;76.00
23635;BME280;11994;51.038;16.974;2023-03-25T05:44:35;99065.33;;;9.58;76.00
23635;BME280;11994;51.038;16.974;2023-03-25T05:47:00;99064.31;;;9.62;76.10
23635;BME280;11994;51.038;16.974;2023-03-25T05:49:27;99068.95;;;9.64;76.11
23635;BME280;11994;51.038;16.974;2023-03-25T05:51:52;99066.30;;;9.65;76.12
23635;BME280;11994;51.038;16.974;2023-03-25T05:54:20;99069.41;;;9.70;76.28
23635;BME280;11994;51.038;16.974;2023-03-25T05:56:49;99074.27;;;9.80;76.43
23635;BME280;11994;51.038;16.974;2023-03-25T05:59:14;99076.17;;;9.89;76.57
23635;BME280;11994;51.038;16.974;2023-03-25T06:01:41;99077.22;;;9.98;76.67
23635;BME280;11994;51.038;16.974;2023-03-25T06:04:12;99075.59;;;10.04;76.52
23635;BME280;11994;51.038;16.974;2023-03-25T06:06:38;99077.30;;;10.10;76.71
23635;BME280;11994;51.038;16.974;2023-03-25T06:09:05;99081.70;;;10.18;76.74
23635;BME280;11994;51.038;16.974;2023-03-25T06:11:31;99085.56;;;10.26;76.66
23635;BME280;11994;51.038;16.974;2023-03-25T06:14:03;99083.29;;;10.34;76.69
23635;BME280;11994;51.038;16.974;2023-03-25T06:16:29;99074.11;;;10.45;76.67
23635;BME280;11994;51.038;16.974;2023-03-25T06:18:56;99073.13;;;10.60;76.79
23635;BME280;11994;51.038;16.974;2023-03-25T06:21:25;99066.86;;;10.71;76.74
23635;BME280;11994;51.038;16.974;2023-03-25T06:23:51;99068.00;;;10.85;76.66
23635;BME280;11994;51.038;16.974;2023-03-25T06:26:18;99067.36;;;11.04;76.65
23635;BME280;11994;51.038;16.974;2023-03-25T06:28:45;99070.27;;;11.25;76.71
23635;BME280;11994;51.038;16.974;2023-03-25T06:31:15;99073.58;;;11.44;76.57
23635;BME280;11994;51.038;16.974;2023-03-25T06:33:42;99070.66;;;11.63;76.41
23635;BME280;11994;51.038;16.974;2023-03-25T06:36:08;99073.70;;;11.69;76.26
23635;BME280;11994;51.038;16.974;2023-03-25T06:38:36;99068.79;;;11.73;76.04
23635;BME280;11994;51.038;16.974;2023-03-25T06:41:01;99067.53;;;11.74;75.90
23635;BME280;11994;51.038;16.974;2023-03-25T06:43:27;99069.23;;;11.78;75.57
23635;BME280;11994;51.038;16.974;2023-03-25T06:45:52;99060.59;;;11.83;75.47
23635;BME280;11994;51.038;16.974;2023-03-25T06:48:17;99063.28;;;11.85;75.30
23635;BME280;11994;51.038;16.974;2023-03-25T06:50:43;99068.19;;;11.86;75.16
23635;BME280;11994;51.038;16.974;2023-03-25T06:53:09;99074.44;;;11.87;75.33
23635;BME280;11994;51.038;16.974;2023-03-25T06:55:35;99077.14;;;11.89;75.30
23635;BME280;11994;51.038;16.974;2023-03-25T06:58:02;99079.23;;;11.89;75.36
23635;BME280;11994;51.038;16.974;2023-03-25T07:00:28;99076.60;;;11.89;75.36
23635;BME280;11994;51.038;16.974;2023-03-25T07:02:53;99065.52;;;11.90;75.45
23635;BME280;11994;51.038;16.974;2023-03-25T07:05:19;99063.80;;;11.90;75.62
23635;BME280;11994;51.038;16.974;2023-03-25T07:07:45;99058.08;;;11.92;75.66
23635;BME280;11994;51.038;16.974;2023-03-25T07:10:13;99062.15;;;11.91;75.59
23635;BME280;11994;51.038;16.974;2023-03-25T07:12:39;99066.04;;;11.90;75.75
23635;BME280;11994;51.038;16.974;2023-03-25T07:15:05;99065.83;;;11.91;75.91
23635;BME280;11994;51.038;16.974;2023-03-25T07:17:30;99068.72;;;11.92;76.08
23635;BME280;11994;51.038;16.974;2023-03-25T07:19:56;99067.54;;;11.95;76.01
23635;BME280;11994;51.038;16.974;2023-03-25T07:22:21;99068.03;;;11.96;75.74
23635;BME280;11994;51.038;16.974;2023-03-25T07:24:46;99069.02;;;11.97;75.77
23635;BME280;11994;51.038;16.974;2023-03-25T07:27:13;99071.95;;;11.98;75.73
23635;BME280;11994;51.038;16.974;2023-03-25T07:29:39;99071.35;;;11.96;75.56
23635;BME280;11994;51.038;16.974;2023-03-25T07:32:05;99073.58;;;11.97;75.55
23635;BME280;11994;51.038;16.974;2023-03-25T07:34:30;99076.77;;;12.00;75.57
23635;BME280;11994;51.038;16.974;2023-03-25T07:36:56;99075.96;;;12.02;75.43
23635;BME280;11994;51.038;16.974;2023-03-25T07:39:21;99074.36;;;12.06;75.39
23635;BME280;11994;51.038;16.974;2023-03-25T07:41:52;99076.45;;;12.10;75.29
23635;BME280;11994;51.038;16.974;2023-03-25T07:44:17;99078.17;;;12.14;75.23
23635;BME280;11994;51.038;16.974;2023-03-25T07:46:46;99084.05;;;12.19;75.23
23635;BME280;11994;51.038;16.974;2023-03-25T07:49:12;99078.97;;;12.23;75.21
23635;BME280;11994;51.038;16.974;2023-03-25T07:51:38;99081.08;;;12.26;74.68
23635;BME280;11994;51.038;16.974;2023-03-25T07:54:04;99081.20;;;12.31;74.70
23635;BME280;11994;51.038;16.974;2023-03-25T07:56:29;99077.80;;;12.36;74.57
23635;BME280;11994;51.038;16.974;2023-03-25T07:58:55;99074.67;;;12.42;74.53
23635;BME280;11994;51.038;16.974;2023-03-25T08:01:20;99069.45;;;12.49;74.18
23635;BME280;11994;51.038;16.974;2023-03-25T08:03:46;99066.13;;;12.59;74.11
23635;BME280;11994;51.038;16.974;2023-03-25T08:06:11;99068.98;;;12.71;73.89
23635;BME280;11994;51.038;16.974;2023-03-25T08:08:37;99069.02;;;12.81;74.05
23635;BME280;11994;51.038;16.974;2023-03-25T08:11:02;99068.14;;;12.88;73.58
23635;BME280;11994;51.038;16.974;2023-03-25T08:13:28;99068.13;;;12.95;73.47
23635;BME280;11994;51.038;16.974;2023-03-25T08:15:54;99069.71;;;13.05;73.17
23635;BME280;11994;51.038;16.974;2023-03-25T08:18:19;99065.77;;;13.17;73.07
23635;BME280;11994;51.038;16.974;2023-03-25T08:20:45;99068.02;;;13.27;73.03
23635;BME280;11994;51.038;16.974;2023-03-25T08:23:12;99069.25;;;13.37;72.00
23635;BME280;11994;51.038;16.974;2023-03-25T08:25:45;99068.25;;;13.46;72.07
23635;BME280;11994;51.038;16.974;2023-03-25T08:28:13;99070.63;;;13.54;71.59
23635;BME280;11994;51.038;16.974;2023-03-25T08:30:41;99071.47;;;13.58;70.94
23635;BME280;11994;51.038;16.974;2023-03-25T08:33:08;99070.91;;;13.58;70.70
23635;BME280;11994;51.038;16.974;2023-03-25T08:35:36;99068.59;;;13.59;70.77
23635;BME280;11994;51.038;16.974;2023-03-25T08:38:03;99070.70;;;13.59;70.57
23635;BME280;11994;51.038;16.974;2023-03-25T08:40:31;99070.89;;;13.58;70.28
23635;BME280;11994;51.038;16.974;2023-03-25T08:42:57;99071.06;;;13.59;70.17
23635;BME280;11994;51.038;16.974;2023-03-25T08:45:22;99073.34;;;13.59;70.30
23635;BME280;11994;51.038;16.974;2023-03-25T08:47:48;99070.92;;;13.58;70.05
23635;BME280;11994;51.038;16.974;2023-03-25T08:50:13;99071.13;;;13.54;69.61
23635;BME280;11994;51.038;16.974;2023-03-25T08:52:38;99068.11;;;13.52;69.70
23635;BME280;11994;51.038;16.974;2023-03-25T08:55:05;99066.44;;;13.50;69.66
23635;BME280;11994;51.038;16.974;2023-03-25T08:57:34;99063.45;;;13.47;69.80
23635;BME280;11994;51.038;16.974;2023-03-25T09:00:01;99060.61;;;13.44;69.32
23635;BME280;11994;51.038;16.974;2023-03-25T09:02:26;99058.13;;;13.41;69.28
23635;BME280;11994;51.038;16.974;2023-03-25T09:04:51;99059.73;;;13.40;69.40
23635;BME280;11994;51.038;16.974;2023-03-25T09:07:17;99057.73;;;13.42;69.30
23635;BME280;11994;51.038;16.974;2023-03-25T09:09:44;99056.06;;;13.44;69.34
23635;BME280;11994;51.038;16.974;2023-03-25T09:12:10;99057.66;;;13.44;68.96
23635;BME280;11994;51.038;16.974;2023-03-25T09:14:36;99060.54;;;13.42;68.59
23635;BME280;11994;51.038;16.974;2023-03-25T09:17:01;99063.06;;;13.41;68.47
23635;BME280;11994;51.038;16.974;2023-03-25T09:19:27;99056.83;;;13.40;68.27
23635;BME280;11994;51.038;16.974;2023-03-25T09:21:52;99058.53;;;13.43;68.29
23635;BME280;11994;51.038;16.974;2023-03-25T09:24:18;99058.92;;;13.49;68.21
23635;BME280;11994;51.038;16.974;2023-03-25T09:26:43;99061.20;;;13.56;68.34
23635;BME280;11994;51.038;16.974;2023-03-25T09:29:09;99058.19;;;13.66;68.09
23635;BME280;11994;51.038;16.974;2023-03-25T09:31:34;99057.67;;;13.75;67.76
23635;BME280;11994;51.038;16.974;2023-03-25T09:34:00;99049.55;;;13.82;67.70
23635;BME280;11994;51.038;16.974;2023-03-25T09:36:25;99052.06;;;13.94;67.47
23635;BME280;11994;51.038;16.974;2023-03-25T09:38:51;99053.22;;;14.10;66.53
23635;BME280;11994;51.038;16.974;2023-03-25T09:44:31;99054.75;;;14.27;65.41
23635;BME280;11994;51.038;16.974;2023-03-25T09:47:00;99050.84;;;14.28;65.27
23635;BME280;11994;51.038;16.974;2023-03-25T09:49:36;99055.08;;;14.34;64.59
23635;BME280;11994;51.038;16.974;2023-03-25T09:52:04;99053.72;;;14.33;63.41
23635;BME280;11994;51.038;16.974;2023-03-25T09:54:37;99055.31;;;14.30;62.79
23635;BME280;11994;51.038;16.974;2023-03-25T09:57:07;99055.59;;;14.28;61.97
23635;BME280;11994;51.038;16.974;2023-03-25T09:59:42;99055.52;;;14.26;62.09
23635;BME280;11994;51.038;16.974;2023-03-25T10:04:52;99050.39;;;14.30;62.34
23635;BME280;11994;51.038;16.974;2023-03-25T10:10:35;99049.30;;;14.18;62.90
23635;BME280;11994;51.038;16.974;2023-03-25T10:19:22;99048.23;;;13.90;63.41
23635;BME280;11994;51.038;16.974;2023-03-25T10:21:58;99039.30;;;13.90;63.52
23635;BME280;11994;51.038;16.974;2023-03-25T10:24:36;99034.66;;;13.97;63.36
23635;BME280;11994;51.038;16.974;2023-03-25T10:30:03;99027.77;;;14.16;62.70
23635;BME280;11994;51.038;16.974;2023-03-25T10:32:44;99032.61;;;14.21;60.24
23635;BME280;11994;51.038;16.974;2023-03-25T10:38:20;99028.26;;;14.16;60.09
23635;BME280;11994;51.038;16.974;2023-03-25T10:40:50;99029.09;;;14.33;60.29
23635;BME280;11994;51.038;16.974;2023-03-25T10:45:54;99027.91;;;14.56;58.62
23635;BME280;11994;51.038;16.974;2023-03-25T10:48:25;99027.88;;;14.62;58.86
23635;BME280;11994;51.038;16.974;2023-03-25T10:53:24;99012.46;;;14.96;58.23
23635;BME280;11994;51.038;16.974;2023-03-25T10:55:58;99018.70;;;15.00;57.13
23635;BME280;11994;51.038;16.974;2023-03-25T10:58:26;99017.25;;;14.92;57.57
23635;BME280;11994;51.038;16.974;2023-03-25T11:00:53;99012.45;;;14.90;57.33
23635;BME280;11994;51.038;16.974;2023-03-25T11:03:22;99015.59;;;14.88;57.28
23635;BME280;11994;51.038;16.974;2023-03-25T11:05:49;99010.84;;;14.82;57.15
23635;BME280;11994;51.038;16.974;2023-03-25T11:08:17;99008.08;;;14.78;57.18
23635;BME280;11994;51.038;16.974;2023-03-25T11:10:50;99005.61;;;14.76;56.99
23635;BME280;11994;51.038;16.974;2023-03-25T11:13:23;98997.30;;;14.79;56.93
23635;BME280;11994;51.038;16.974;2023-03-25T11:15:52;98994.94;;;14.80;56.54
23635;BME280;11994;51.038;16.974;2023-03-25T11:20:55;98994.79;;;14.82;56.40
23635;BME280;11994;51.038;16.974;2023-03-25T11:23:32;98992.25;;;14.81;56.26
23635;BME280;11994;51.038;16.974;2023-03-25T11:26:05;98993.48;;;14.75;56.03
23635;BME280;11994;51.038;16.974;2023-03-25T11:28:35;98996.41;;;14.70;55.80
23635;BME280;11994;51.038;16.974;2023-03-25T11:31:28;99002.07;;;14.64;55.48
23635;BME280;11994;51.038;16.974;2023-03-25T11:36:36;98992.69;;;14.53;56.23
23635;BME280;11994;51.038;16.974;2023-03-25T11:39:15;98992.52;;;14.59;55.78
23635;BME280;11994;51.038;16.974;2023-03-25T11:41:42;98992.70;;;14.65;56.15
23635;BME280;11994;51.038;16.974;2023-03-25T11:44:23;98989.40;;;14.67;55.04
23635;BME280;11994;51.038;16.974;2023-03-25T11:46:55;98995.13;;;14.57;54.14
23635;BME280;11994;51.038;16.974;2023-03-25T11:49:22;98998.82;;;14.48;54.53
23635;BME280;11994;51.038;16.974;2023-03-25T11:52:13;99001.04;;;14.43;54.67
23635;BME280;11994;51.038;16.974;2023-03-25T11:54:41;99005.11;;;14.43;55.18
23635;BME280;11994;51.038;16.974;2023-03-25T11:57:17;99006.65;;;14.44;55.29
23635;BME280;11994;51.038;16.974;2023-03-25T11:59:46;99013.64;;;14.42;54.51
23635;BME280;11994;51.038;16.974;2023-03-25T12:02:23;99020.59;;;14.25;54.34
23635;BME280;11994;51.038;16.974;2023-03-25T12:07:20;99034.68;;;13.87;56.15
23635;BME280;11994;51.038;16.974;2023-03-25T12:09:54;99046.34;;;13.51;57.08
23635;BME280;11994;51.038;16.974;2023-03-25T12:15:20;99051.86;;;12.77;59.57
23635;BME280;11994;51.038;16.974;2023-03-25T12:20:40;99072.30;;;12.16;62.03
23635;BME280;11994;51.038;16.974;2023-03-25T12:23:15;99069.24;;;11.92;63.18
23635;BME280;11994;51.038;16.974;2023-03-25T12:29:13;99080.73;;;11.61;64.79
23635;BME280;11994;51.038;16.974;2023-03-25T12:42:40;99087.27;;;11.32;67.97
23635;BME280;11994;51.038;16.974;2023-03-25T12:50:59;99078.91;;;11.04;69.75
23635;BME280;11994;51.038;16.974;2023-03-25T12:56:40;99085.72;;;11.16;70.10
23635;BME280;11994;51.038;16.974;2023-03-25T12:59:23;99087.37;;;11.26;70.37
23635;BME280;11994;51.038;16.974;2023-03-25T13:04:45;99082.93;;;11.67;70.83
23635;BME280;11994;51.038;16.974;2023-03-25T13:07:31;99083.77;;;11.82;70.54
23635;BME280;11994;51.038;16.974;2023-03-25T13:10:06;99075.41;;;11.92;69.66
23635;BME280;11994;51.038;16.974;2023-03-25T13:12:41;99068.87;;;11.97;69.15
23635;BME280;11994;51.038;16.974;2023-03-25T13:15:26;99070.36;;;12.02;68.89
23635;BME280;11994;51.038;16.974;2023-03-25T13:23:20;99067.60;;;12.08;66.98
23635;BME280;11994;51.038;16.974;2023-03-25T13:25:58;99059.84;;;12.09;67.51
23635;BME280;11994;51.038;16.974;2023-03-25T13:28:34;99061.52;;;12.25;67.75
23635;BME280;11994;51.038;16.974;2023-03-25T13:31:04;99060.41;;;12.33;67.01
23635;BME280;11994;51.038;16.974;2023-03-25T13:33:34;99057.85;;;12.35;67.15
23635;BME280;11994;51.038;16.974;2023-03-25T13:38:47;99050.14;;;12.66;67.73
23635;BME280;11994;51.038;16.974;2023-03-25T13:43:53;99052.80;;;12.65;66.38
23635;BME280;11994;51.038;16.974;2023-03-25T13:46:24;99043.77;;;12.50;66.71
23635;BME280;11994;51.038;16.974;2023-03-25T13:48:55;99046.77;;;12.43;66.72
23635;BME280;11994;51.038;16.974;2023-03-25T13:51:22;99048.69;;;12.36;66.70
23635;BME280;11994;51.038;16.974;2023-03-25T13:53:59;99053.96;;;12.32;66.82
23635;BME280;11994;51.038;16.974;2023-03-25T13:56:56;99050.69;;;12.28;66.93
23635;BME280;11994;51.038;16.974;2023-03-25T14:11:10;99038.28;;;12.40;66.31
23635;BME280;11994;51.038;16.974;2023-03-25T14:13:48;99034.29;;;12.57;66.34
23635;BME280;11994;51.038;16.974;2023-03-25T14:16:20;99032.08;;;12.76;66.34
23635;BME280;11994;51.038;16.974;2023-03-25T14:18:49;99032.02;;;12.94;66.00
23635;BME280;11994;51.038;16.974;2023-03-25T14:21:31;99032.11;;;13.06;64.91
23635;BME280;11994;51.038;16.974;2023-03-25T14:24:28;99029.21;;;13.11;64.09
23635;BME280;11994;51.038;16.974;2023-03-25T14:27:04;99022.89;;;13.11;63.37
23635;BME280;11994;51.038;16.974;2023-03-25T14:30:16;99020.55;;;13.16;63.44
23635;BME280;11994;51.038;16.974;2023-03-25T14:32:50;99023.85;;;13.23;62.58
23635;BME280;11994;51.038;16.974;2023-03-25T14:38:48;99028.83;;;13.21;61.99
23635;BME280;11994;51.038;16.974;2023-03-25T14:41:07;99028.05;;;13.23;61.75
23635;BME280;11994;51.038;16.974;2023-03-25T14:43:43;99027.19;;;13.19;61.22
23635;BME280;11994;51.038;16.974;2023-03-25T14:48:40;99031.55;;;13.07;61.03
23635;BME280;11994;51.038;16.974;2023-03-25T14:53:55;99035.36;;;13.01;61.57
23635;BME280;11994;51.038;16.974;2023-03-25T14:56:32;99037.95;;;12.99;61.73
23635;BME280;11994;51.038;16.974;2023-03-25T14:59:04;99037.19;;;12.96;61.78
23635;BME280;11994;51.038;16.974;2023-03-25T15:01:33;99041.45;;;12.91;61.65
23635;BME280;11994;51.038;16.974;2023-03-25T15:04:11;99040.46;;;12.84;62.00
23635;BME280;11994;51.038;16.974;2023-03-25T15:06:39;99047.04;;;12.79;62.25
23635;BME280;11994;51.038;16.974;2023-03-25T15:09:07;99060.65;;;12.73;62.21
23635;BME280;11994;51.038;16.974;2023-03-25T15:11:37;99074.28;;;12.61;62.25
23635;BME280;11994;51.038;16.974;2023-03-25T15:14:06;99094.33;;;12.49;63.15
23635;BME280;11994;51.038;16.974;2023-03-25T15:19:15;99113.11;;;11.57;66.88
23635;BME280;11994;51.038;16.974;2023-03-25T15:24:31;99089.79;;;10.79;68.46